sensor_id;sensor_type;location;lat;lon;timestamp;temperature;humidity
13598;DHT22;38563;54.258;12.574;2023-12-04T00:01:14;-2.00;99.90
13598;DHT22;38563;54.258;12.574;2023-12-04T00:03:41;-2.00;99.90
13598;DHT22;38563;54.258;12.574;2023-12-04T00:06:10;-2.00;99.90
13598;DHT22;38563;54.258;12.574;2023-12-04T00:08:37;-2.00;99.90
13598;DHT22;38563;54.258;12.574;2023-12-04T00:11:05;-2.00;99.90
13598;DHT22;38563;54.258;12.574;2023-12-04T00:13:32;-2.00;99.90
13598;DHT22;38563;54.258;12.574;2023-12-04T00:15:58;-2.00;99.90
13598;DHT22;38563;54.258;12.574;2023-12-04T00:18:25;-2.00;99.90
13598;DHT22;38563;54.258;12.574;2023-12-04T00:20:52;-2.00;99.90
13598;DHT22;38563;54.258;12.574;2023-12-04T00:23:20;-2.00;99.90
13598;DHT22;38563;54.258;12.574;2023-12-04T00:25:46;-2.00;99.90
13598;DHT22;38563;54.258;12.574;2023-12-04T00:28:13;-2.00;99.90
13598;DHT22;38563;54.258;12.574;2023-12-04T00:30:40;-2.00;99.90
13598;DHT22;38563;54.258;12.574;2023-12-04T00:33:06;-2.00;99.90
13598;DHT22;38563;54.258;12.574;2023-12-04T00:35:32;-2.00;99.90
13598;DHT22;38563;54.258;12.574;2023-12-04T00:37:59;-2.00;99.90
13598;DHT22;38563;54.258;12.574;2023-12-04T00:40:27;-2.00;99.90
13598;DHT22;38563;54.258;12.574;2023-12-04T00:42:54;-2.00;99.90
13598;DHT22;38563;54.258;12.574;2023-12-04T00:45:21;-2.00;99.90
13598;DHT22;38563;54.258;12.574;2023-12-04T00:47:47;-2.00;99.90
13598;DHT22;38563;54.258;12.574;2023-12-04T00:50:14;-2.00;99.90
13598;DHT22;38563;54.258;12.574;2023-12-04T00:52:41;-2.00;99.90
13598;DHT22;38563;54.258;12.574;2023-12-04T00:55:08;-2.00;99.90
13598;DHT22;38563;54.258;12.574;2023-12-04T00:57:36;-2.00;99.90
13598;DHT22;38563;54.258;12.574;2023-12-04T01:00:03;-2.00;99.90
13598;DHT22;38563;54.258;12.574;2023-12-04T01:02:30;-2.00;99.90
13598;DHT22;38563;54.258;12.574;2023-12-04T01:04:57;-2.00;99.90
13598;DHT22;38563;54.258;12.574;2023-12-04T01:07:24;-2.00;99.90
13598;DHT22;38563;54.258;12.574;2023-12-04T01:09:50;-2.00;99.90
13598;DHT22;38563;54.258;12.574;2023-12-04T01:12:17;-2.00;99.90
13598;DHT22;38563;54.258;12.574;2023-12-04T01:14:45;-2.00;99.90
13598;DHT22;38563;54.258;12.574;2023-12-04T01:17:12;-2.10;99.90
13598;DHT22;38563;54.258;12.574;2023-12-04T01:19:38;-2.10;99.90
13598;DHT22;38563;54.258;12.574;2023-12-04T01:22:05;-2.10;99.90
13598;DHT22;38563;54.258;12.574;2023-12-04T01:24:32;-2.10;99.90
13598;DHT22;38563;54.258;12.574;2023-12-04T01:26:59;-2.10;99.90
13598;DHT22;38563;54.258;12.574;2023-12-04T01:29:25;-2.10;99.90
13598;DHT22;38563;54.258;12.574;2023-12-04T01:31:53;-2.10;99.90
13598;DHT22;38563;54.258;12.574;2023-12-04T01:34:20;-2.10;99.90
13598;DHT22;38563;54.258;12.574;2023-12-04T01:36:47;-2.10;99.90
13598;DHT22;38563;54.258;12.574;2023-12-04T01:39:14;-2.10;99.90
13598;DHT22;38563;54.258;12.574;2023-12-04T01:41:40;-2.10;99.90
13598;DHT22;38563;54.258;12.574;2023-12-04T01:44:07;-2.10;99.90
13598;DHT22;38563;54.258;12.574;2023-12-04T01:46:34;-2.10;99.90
13598;DHT22;38563;54.258;12.574;2023-12-04T01:49:02;-2.10;99.90
13598;DHT22;38563;54.258;12.574;2023-12-04T01:51:29;-2.10;99.90
13598;DHT22;38563;54.258;12.574;2023-12-04T01:53:58;-2.10;99.90
13598;DHT22;38563;54.258;12.574;2023-12-04T01:56:25;-2.10;99.90
13598;DHT22;38563;54.258;12.574;2023-12-04T01:58:52;-2.10;99.90
13598;DHT22;38563;54.258;12.574;2023-12-04T02:01:20;-2.00;99.90
13598;DHT22;38563;54.258;12.574;2023-12-04T02:03:47;-2.00;99.90
13598;DHT22;38563;54.258;12.574;2023-12-04T02:06:16;-2.10;99.90
13598;DHT22;38563;54.258;12.574;2023-12-04T02:08:46;-2.10;99.90
13598;DHT22;38563;54.258;12.574;2023-12-04T02:11:13;-2.10;99.90
13598;DHT22;38563;54.258;12.574;2023-12-04T02:13:40;-2.10;99.90
13598;DHT22;38563;54.258;12.574;2023-12-04T02:16:09;-2.00;99.90
13598;DHT22;38563;54.258;12.574;2023-12-04T02:18:36;-2.00;99.90
13598;DHT22;38563;54.258;12.574;2023-12-04T02:21:04;-2.10;99.90
13598;DHT22;38563;54.258;12.574;2023-12-04T02:23:33;-2.10;99.90
13598;DHT22;38563;54.258;12.574;2023-12-04T02:26:05;-2.10;99.90
13598;DHT22;38563;54.258;12.574;2023-12-04T02:28:36;-2.10;99.90
13598;DHT22;38563;54.258;12.574;2023-12-04T02:31:04;-2.10;99.90
13598;DHT22;38563;54.258;12.574;2023-12-04T02:33:32;-2.10;99.90
13598;DHT22;38563;54.258;12.574;2023-12-04T02:35:59;-2.10;99.90
13598;DHT22;38563;54.258;12.574;2023-12-04T02:38:27;-2.20;99.90
13598;DHT22;38563;54.258;12.574;2023-12-04T02:40:55;-2.20;99.90
13598;DHT22;38563;54.258;12.574;2023-12-04T02:43:23;-2.20;99.90
13598;DHT22;38563;54.258;12.574;2023-12-04T02:45:50;-2.20;99.90
13598;DHT22;38563;54.258;12.574;2023-12-04T02:48:17;-2.20;99.90
13598;DHT22;38563;54.258;12.574;2023-12-04T02:50:44;-2.10;99.90
13598;DHT22;38563;54.258;12.574;2023-12-04T02:53:10;-2.10;99.90
13598;DHT22;38563;54.258;12.574;2023-12-04T02:55:37;-2.20;99.90
13598;DHT22;38563;54.258;12.574;2023-12-04T02:58:04;-2.20;99.90
13598;DHT22;38563;54.258;12.574;2023-12-04T03:00:32;-2.20;99.90
13598;DHT22;38563;54.258;12.574;2023-12-04T03:02:59;-2.20;99.90
13598;DHT22;38563;54.258;12.574;2023-12-04T03:05:25;-2.20;99.90
13598;DHT22;38563;54.258;12.574;2023-12-04T03:07:52;-2.20;99.90
13598;DHT22;38563;54.258;12.574;2023-12-04T03:10:19;-2.20;99.90
13598;DHT22;38563;54.258;12.574;2023-12-04T03:12:45;-2.20;99.90
13598;DHT22;38563;54.258;12.574;2023-12-04T03:15:12;-2.30;99.90
13598;DHT22;38563;54.258;12.574;2023-12-04T03:17:40;-2.30;99.90
13598;DHT22;38563;54.258;12.574;2023-12-04T03:20:07;-2.30;99.90
13598;DHT22;38563;54.258;12.574;2023-12-04T03:22:34;-2.30;99.90
13598;DHT22;38563;54.258;12.574;2023-12-04T03:25:01;-2.30;99.90
13598;DHT22;38563;54.258;12.574;2023-12-04T03:27:28;-2.30;99.90
13598;DHT22;38563;54.258;12.574;2023-12-04T03:29:54;-2.40;99.90
13598;DHT22;38563;54.258;12.574;2023-12-04T03:32:21;-2.30;99.90
13598;DHT22;38563;54.258;12.574;2023-12-04T03:34:49;-2.30;99.90
13598;DHT22;38563;54.258;12.574;2023-12-04T03:37:16;-2.30;99.90
13598;DHT22;38563;54.258;12.574;2023-12-04T03:39:42;-2.20;99.90
13598;DHT22;38563;54.258;12.574;2023-12-04T03:42:09;-2.20;99.90
13598;DHT22;38563;54.258;12.574;2023-12-04T03:44:36;-2.20;99.90
13598;DHT22;38563;54.258;12.574;2023-12-04T03:47:03;-2.20;99.90
13598;DHT22;38563;54.258;12.574;2023-12-04T03:49:30;-2.20;99.90
13598;DHT22;38563;54.258;12.574;2023-12-04T03:51:58;-2.20;99.90
13598;DHT22;38563;54.258;12.574;2023-12-04T03:54:24;-2.10;99.90
13598;DHT22;38563;54.258;12.574;2023-12-04T03:56:51;-2.10;99.90
13598;DHT22;38563;54.258;12.574;2023-12-04T03:59:18;-2.20;99.90
13598;DHT22;38563;54.258;12.574;2023-12-04T04:01:45;-2.10;99.90
13598;DHT22;38563;54.258;12.574;2023-12-04T04:04:11;-2.10;99.90
13598;DHT22;38563;54.258;12.574;2023-12-04T04:06:38;-2.10;99.90
13598;DHT22;38563;54.258;12.574;2023-12-04T04:09:06;-2.10;99.90
13598;DHT22;38563;54.258;12.574;2023-12-04T04:11:33;-2.10;99.90
13598;DHT22;38563;54.258;12.574;2023-12-04T04:13:59;-2.10;99.90
13598;DHT22;38563;54.258;12.574;2023-12-04T04:16:26;-2.10;99.90
13598;DHT22;38563;54.258;12.574;2023-12-04T04:18:53;-2.10;99.90
13598;DHT22;38563;54.258;12.574;2023-12-04T04:21:20;-2.10;99.90
13598;DHT22;38563;54.258;12.574;2023-12-04T04:23:46;-2.10;99.90
13598;DHT22;38563;54.258;12.574;2023-12-04T04:26:14;-2.10;99.90
13598;DHT22;38563;54.258;12.574;2023-12-04T04:28:41;-2.10;99.90
13598;DHT22;38563;54.258;12.574;2023-12-04T04:31:08;-2.00;99.90
13598;DHT22;38563;54.258;12.574;2023-12-04T04:33:35;-2.00;99.90
13598;DHT22;38563;54.258;12.574;2023-12-04T04:36:02;-2.00;99.90
13598;DHT22;38563;54.258;12.574;2023-12-04T04:38:28;-2.10;99.90
13598;DHT22;38563;54.258;12.574;2023-12-04T04:40:55;-2.10;99.90
13598;DHT22;38563;54.258;12.574;2023-12-04T04:43:23;-2.10;99.90
13598;DHT22;38563;54.258;12.574;2023-12-04T04:45:50;-2.20;99.90
13598;DHT22;38563;54.258;12.574;2023-12-04T04:48:17;-2.20;99.90
13598;DHT22;38563;54.258;12.574;2023-12-04T04:50:45;-2.20;99.90
13598;DHT22;38563;54.258;12.574;2023-12-04T04:53:12;-2.20;99.90
13598;DHT22;38563;54.258;12.574;2023-12-04T04:55:38;-2.20;99.90
13598;DHT22;38563;54.258;12.574;2023-12-04T04:58:05;-2.20;99.90
13598;DHT22;38563;54.258;12.574;2023-12-04T05:00:33;-2.30;99.90
13598;DHT22;38563;54.258;12.574;2023-12-04T05:03:00;-2.30;99.90
13598;DHT22;38563;54.258;12.574;2023-12-04T05:05:26;-2.30;99.90
13598;DHT22;38563;54.258;12.574;2023-12-04T05:07:53;-2.30;99.90
13598;DHT22;38563;54.258;12.574;2023-12-04T05:10:20;-2.30;99.90
13598;DHT22;38563;54.258;12.574;2023-12-04T05:12:46;-2.30;99.90
13598;DHT22;38563;54.258;12.574;2023-12-04T05:15:13;-2.20;99.90
13598;DHT22;38563;54.258;12.574;2023-12-04T05:17:41;-2.20;99.90
13598;DHT22;38563;54.258;12.574;2023-12-04T05:20:09;-2.20;99.90
13598;DHT22;38563;54.258;12.574;2023-12-04T05:22:35;-2.30;99.90
13598;DHT22;38563;54.258;12.574;2023-12-04T05:25:02;-2.20;99.90
13598;DHT22;38563;54.258;12.574;2023-12-04T05:27:29;-2.30;99.90
13598;DHT22;38563;54.258;12.574;2023-12-04T05:29:56;-2.30;99.90
13598;DHT22;38563;54.258;12.574;2023-12-04T05:32:23;-2.40;99.90
13598;DHT22;38563;54.258;12.574;2023-12-04T05:34:51;-2.40;99.90
13598;DHT22;38563;54.258;12.574;2023-12-04T05:37:17;-2.40;99.90
13598;DHT22;38563;54.258;12.574;2023-12-04T05:39:44;-2.30;99.90
13598;DHT22;38563;54.258;12.574;2023-12-04T05:42:11;-2.20;99.90
13598;DHT22;38563;54.258;12.574;2023-12-04T05:44:37;-2.20;99.90
13598;DHT22;38563;54.258;12.574;2023-12-04T05:47:04;-2.20;99.90
13598;DHT22;38563;54.258;12.574;2023-12-04T05:49:33;-2.20;99.90
13598;DHT22;38563;54.258;12.574;2023-12-04T05:52:01;-2.30;99.90
13598;DHT22;38563;54.258;12.574;2023-12-04T05:54:28;-2.30;99.90
13598;DHT22;38563;54.258;12.574;2023-12-04T05:56:55;-2.30;99.90
13598;DHT22;38563;54.258;12.574;2023-12-04T05:59:22;-2.40;99.90
13598;DHT22;38563;54.258;12.574;2023-12-04T06:01:49;-2.40;99.90
13598;DHT22;38563;54.258;12.574;2023-12-04T06:04:15;-2.60;99.90
13598;DHT22;38563;54.258;12.574;2023-12-04T06:06:43;-2.70;99.90
13598;DHT22;38563;54.258;12.574;2023-12-04T06:09:11;-2.90;99.90
13598;DHT22;38563;54.258;12.574;2023-12-04T06:11:37;-2.90;99.90
13598;DHT22;38563;54.258;12.574;2023-12-04T06:14:04;-3.00;99.90
13598;DHT22;38563;54.258;12.574;2023-12-04T06:16:31;-3.00;99.90
13598;DHT22;38563;54.258;12.574;2023-12-04T06:18:58;-3.00;99.90
13598;DHT22;38563;54.258;12.574;2023-12-04T06:21:24;-3.00;99.90
13598;DHT22;38563;54.258;12.574;2023-12-04T06:23:52;-3.00;99.90
13598;DHT22;38563;54.258;12.574;2023-12-04T06:26:20;-3.00;99.90
13598;DHT22;38563;54.258;12.574;2023-12-04T06:28:48;-3.00;99.90
13598;DHT22;38563;54.258;12.574;2023-12-04T06:31:15;-3.00;99.90
13598;DHT22;38563;54.258;12.574;2023-12-04T06:33:42;-3.00;99.90
13598;DHT22;38563;54.258;12.574;2023-12-04T06:36:12;-3.00;99.90
13598;DHT22;38563;54.258;12.574;2023-12-04T06:38:40;-3.00;99.90
13598;DHT22;38563;54.258;12.574;2023-12-04T06:41:08;-3.00;99.90
13598;DHT22;38563;54.258;12.574;2023-12-04T06:43:37;-3.00;99.90
13598;DHT22;38563;54.258;12.574;2023-12-04T06:46:05;-3.00;99.90
13598;DHT22;38563;54.258;12.574;2023-12-04T06:48:32;-3.00;99.90
13598;DHT22;38563;54.258;12.574;2023-12-04T06:50:59;-3.10;99.90
13598;DHT22;38563;54.258;12.574;2023-12-04T06:53:26;-3.10;99.90
13598;DHT22;38563;54.258;12.574;2023-12-04T06:55:53;-3.10;99.90
13598;DHT22;38563;54.258;12.574;2023-12-04T06:58:19;-3.10;99.90
13598;DHT22;38563;54.258;12.574;2023-12-04T07:00:47;-3.10;99.90
13598;DHT22;38563;54.258;12.574;2023-12-04T07:03:14;-3.10;99.90
13598;DHT22;38563;54.258;12.574;2023-12-04T07:05:41;-3.10;99.90
13598;DHT22;38563;54.258;12.574;2023-12-04T07:08:08;-3.10;99.90
13598;DHT22;38563;54.258;12.574;2023-12-04T07:10:35;-3.10;99.90
13598;DHT22;38563;54.258;12.574;2023-12-04T07:13:02;-3.10;99.90
13598;DHT22;38563;54.258;12.574;2023-12-04T07:15:29;-3.10;99.90
13598;DHT22;38563;54.258;12.574;2023-12-04T07:17:57;-3.10;99.90
13598;DHT22;38563;54.258;12.574;2023-12-04T07:20:24;-3.10;99.90
13598;DHT22;38563;54.258;12.574;2023-12-04T07:22:50;-3.10;99.90
13598;DHT22;38563;54.258;12.574;2023-12-04T07:25:17;-3.10;99.90
13598;DHT22;38563;54.258;12.574;2023-12-04T07:27:44;-3.10;99.90
13598;DHT22;38563;54.258;12.574;2023-12-04T07:30:11;-3.10;99.90
13598;DHT22;38563;54.258;12.574;2023-12-04T07:32:38;-3.10;99.90
13598;DHT22;38563;54.258;12.574;2023-12-04T07:35:07;-3.10;99.90
13598;DHT22;38563;54.258;12.574;2023-12-04T07:37:34;-3.00;99.90
13598;DHT22;38563;54.258;12.574;2023-12-04T07:40:01;-3.00;99.90
13598;DHT22;38563;54.258;12.574;2023-12-04T07:42:29;-3.00;99.90
13598;DHT22;38563;54.258;12.574;2023-12-04T07:44:55;-3.00;99.90
13598;DHT22;38563;54.258;12.574;2023-12-04T07:47:23;-3.00;99.90
13598;DHT22;38563;54.258;12.574;2023-12-04T07:49:49;-3.00;99.90
13598;DHT22;38563;54.258;12.574;2023-12-04T07:52:18;-3.00;99.90
13598;DHT22;38563;54.258;12.574;2023-12-04T07:54:44;-2.90;99.90
13598;DHT22;38563;54.258;12.574;2023-12-04T07:57:11;-3.00;99.90
13598;DHT22;38563;54.258;12.574;2023-12-04T07:59:38;-2.90;99.90
13598;DHT22;38563;54.258;12.574;2023-12-04T08:02:04;-2.90;99.90
13598;DHT22;38563;54.258;12.574;2023-12-04T08:04:30;-2.90;99.90
13598;DHT22;38563;54.258;12.574;2023-12-04T08:06:57;-2.80;99.90
13598;DHT22;38563;54.258;12.574;2023-12-04T08:09:25;-2.80;99.90
13598;DHT22;38563;54.258;12.574;2023-12-04T08:11:52;-2.80;99.90
13598;DHT22;38563;54.258;12.574;2023-12-04T08:14:18;-2.80;99.90
13598;DHT22;38563;54.258;12.574;2023-12-04T08:16:45;-2.70;99.90
13598;DHT22;38563;54.258;12.574;2023-12-04T08:19:14;-2.70;99.90
13598;DHT22;38563;54.258;12.574;2023-12-04T08:21:40;-2.80;99.90
13598;DHT22;38563;54.258;12.574;2023-12-04T08:24:07;-2.70;99.90
13598;DHT22;38563;54.258;12.574;2023-12-04T08:26:35;-2.80;99.90
13598;DHT22;38563;54.258;12.574;2023-12-04T08:29:02;-2.80;99.90
13598;DHT22;38563;54.258;12.574;2023-12-04T08:31:29;-2.90;99.90
13598;DHT22;38563;54.258;12.574;2023-12-04T08:33:55;-2.90;99.90
13598;DHT22;38563;54.258;12.574;2023-12-04T08:36:22;-2.80;99.90
13598;DHT22;38563;54.258;12.574;2023-12-04T08:38:49;-2.90;99.90
13598;DHT22;38563;54.258;12.574;2023-12-04T08:41:16;-2.90;99.90
13598;DHT22;38563;54.258;12.574;2023-12-04T08:43:44;-2.90;99.90
13598;DHT22;38563;54.258;12.574;2023-12-04T08:46:13;-2.90;99.90
13598;DHT22;38563;54.258;12.574;2023-12-04T08:48:40;-2.90;99.90
13598;DHT22;38563;54.258;12.574;2023-12-04T08:51:07;-2.90;99.90
13598;DHT22;38563;54.258;12.574;2023-12-04T08:53:34;-3.00;99.90
13598;DHT22;38563;54.258;12.574;2023-12-04T08:56:02;-3.00;99.90
13598;DHT22;38563;54.258;12.574;2023-12-04T08:58:29;-3.00;99.90
13598;DHT22;38563;54.258;12.574;2023-12-04T09:00:57;-3.00;99.90
13598;DHT22;38563;54.258;12.574;2023-12-04T09:03:24;-3.00;99.90
13598;DHT22;38563;54.258;12.574;2023-12-04T09:05:51;-3.00;99.90
13598;DHT22;38563;54.258;12.574;2023-12-04T09:08:17;-3.00;99.90
13598;DHT22;38563;54.258;12.574;2023-12-04T09:10:45;-3.00;99.90
13598;DHT22;38563;54.258;12.574;2023-12-04T09:13:13;-3.00;99.90
13598;DHT22;38563;54.258;12.574;2023-12-04T09:15:39;-3.00;99.90
13598;DHT22;38563;54.258;12.574;2023-12-04T09:18:08;-2.90;99.90
13598;DHT22;38563;54.258;12.574;2023-12-04T09:20:34;-2.90;99.90
13598;DHT22;38563;54.258;12.574;2023-12-04T09:23:01;-3.00;99.90
13598;DHT22;38563;54.258;12.574;2023-12-04T09:25:28;-3.00;99.90
13598;DHT22;38563;54.258;12.574;2023-12-04T09:27:55;-3.00;99.90
13598;DHT22;38563;54.258;12.574;2023-12-04T09:30:21;-3.10;99.90
13598;DHT22;38563;54.258;12.574;2023-12-04T09:32:48;-3.10;99.90
13598;DHT22;38563;54.258;12.574;2023-12-04T09:35:16;-3.20;99.90
13598;DHT22;38563;54.258;12.574;2023-12-04T09:37:43;-3.20;99.90
13598;DHT22;38563;54.258;12.574;2023-12-04T09:40:11;-3.20;99.90
13598;DHT22;38563;54.258;12.574;2023-12-04T09:42:39;-3.20;99.90
13598;DHT22;38563;54.258;12.574;2023-12-04T09:45:09;-3.20;99.90
13598;DHT22;38563;54.258;12.574;2023-12-04T09:47:36;-3.20;99.90
13598;DHT22;38563;54.258;12.574;2023-12-04T09:50:06;-3.20;99.90
13598;DHT22;38563;54.258;12.574;2023-12-04T09:52:35;-3.10;99.90
13598;DHT22;38563;54.258;12.574;2023-12-04T09:55:02;-3.10;99.90
13598;DHT22;38563;54.258;12.574;2023-12-04T09:57:31;-3.10;99.90
13598;DHT22;38563;54.258;12.574;2023-12-04T10:00:00;-3.10;99.90
13598;DHT22;38563;54.258;12.574;2023-12-04T10:02:37;-3.10;99.90
13598;DHT22;38563;54.258;12.574;2023-12-04T10:05:05;-3.10;99.90
13598;DHT22;38563;54.258;12.574;2023-12-04T10:07:32;-3.10;99.90
13598;DHT22;38563;54.258;12.574;2023-12-04T10:10:00;-3.10;99.90
13598;DHT22;38563;54.258;12.574;2023-12-04T10:12:27;-3.00;99.90
13598;DHT22;38563;54.258;12.574;2023-12-04T10:15:03;-3.00;99.90
13598;DHT22;38563;54.258;12.574;2023-12-04T10:17:33;-3.00;99.90
13598;DHT22;38563;54.258;12.574;2023-12-04T10:20:05;-2.90;99.90
13598;DHT22;38563;54.258;12.574;2023-12-04T10:22:37;-2.90;99.90
13598;DHT22;38563;54.258;12.574;2023-12-04T10:25:15;-2.90;99.90
13598;DHT22;38563;54.258;12.574;2023-12-04T10:27:42;-2.90;99.90
13598;DHT22;38563;54.258;12.574;2023-12-04T10:30:10;-2.90;99.90
13598;DHT22;38563;54.258;12.574;2023-12-04T10:32:39;-2.80;99.90
13598;DHT22;38563;54.258;12.574;2023-12-04T10:35:07;-2.80;99.90
13598;DHT22;38563;54.258;12.574;2023-12-04T10:37:36;-2.70;99.90
13598;DHT22;38563;54.258;12.574;2023-12-04T10:40:04;-2.60;99.90
13598;DHT22;38563;54.258;12.574;2023-12-04T10:42:35;-2.50;99.90
13598;DHT22;38563;54.258;12.574;2023-12-04T10:45:02;-2.50;99.90
13598;DHT22;38563;54.258;12.574;2023-12-04T10:47:33;-2.40;99.90
13598;DHT22;38563;54.258;12.574;2023-12-04T10:50:00;-2.50;99.90
13598;DHT22;38563;54.258;12.574;2023-12-04T10:52:28;-2.50;99.90
13598;DHT22;38563;54.258;12.574;2023-12-04T10:54:56;-2.50;99.90
13598;DHT22;38563;54.258;12.574;2023-12-04T10:57:27;-2.50;99.90
13598;DHT22;38563;54.258;12.574;2023-12-04T10:59:59;-2.40;99.90
13598;DHT22;38563;54.258;12.574;2023-12-04T11:02:29;-2.40;99.90
13598;DHT22;38563;54.258;12.574;2023-12-04T11:05:07;-2.40;99.90
13598;DHT22;38563;54.258;12.574;2023-12-04T11:07:40;-2.50;99.90
13598;DHT22;38563;54.258;12.574;2023-12-04T11:10:08;-2.50;99.90
13598;DHT22;38563;54.258;12.574;2023-12-04T11:12:40;-2.50;99.90
13598;DHT22;38563;54.258;12.574;2023-12-04T11:15:11;-2.40;99.90
13598;DHT22;38563;54.258;12.574;2023-12-04T11:17:42;-2.30;99.90
13598;DHT22;38563;54.258;12.574;2023-12-04T11:20:11;-2.20;99.90
13598;DHT22;38563;54.258;12.574;2023-12-04T11:22:39;-2.10;99.90
13598;DHT22;38563;54.258;12.574;2023-12-04T11:25:07;-2.10;99.90
13598;DHT22;38563;54.258;12.574;2023-12-04T11:27:35;-2.00;99.90
13598;DHT22;38563;54.258;12.574;2023-12-04T11:30:03;-2.00;99.90
13598;DHT22;38563;54.258;12.574;2023-12-04T11:32:43;-2.00;99.90
13598;DHT22;38563;54.258;12.574;2023-12-04T11:35:13;-2.00;99.90
13598;DHT22;38563;54.258;12.574;2023-12-04T11:37:41;-2.10;99.90
13598;DHT22;38563;54.258;12.574;2023-12-04T11:40:11;-2.10;99.90
13598;DHT22;38563;54.258;12.574;2023-12-04T11:42:38;-2.10;99.90
13598;DHT22;38563;54.258;12.574;2023-12-04T11:45:06;-2.00;99.90
13598;DHT22;38563;54.258;12.574;2023-12-04T11:47:49;-2.00;99.90
13598;DHT22;38563;54.258;12.574;2023-12-04T11:50:17;-2.00;99.90
13598;DHT22;38563;54.258;12.574;2023-12-04T11:52:45;-2.00;99.90
13598;DHT22;38563;54.258;12.574;2023-12-04T11:55:12;-2.00;99.90
13598;DHT22;38563;54.258;12.574;2023-12-04T11:57:42;-2.00;99.90
13598;DHT22;38563;54.258;12.574;2023-12-04T12:00:10;-2.00;99.90
13598;DHT22;38563;54.258;12.574;2023-12-04T12:02:38;-2.00;99.90
13598;DHT22;38563;54.258;12.574;2023-12-04T12:05:07;-2.00;99.90
13598;DHT22;38563;54.258;12.574;2023-12-04T12:07:34;-1.90;99.90
13598;DHT22;38563;54.258;12.574;2023-12-04T12:10:01;-1.90;99.90
13598;DHT22;38563;54.258;12.574;2023-12-04T12:12:28;-1.80;99.90
13598;DHT22;38563;54.258;12.574;2023-12-04T12:14:56;-1.70;99.90
13598;DHT22;38563;54.258;12.574;2023-12-04T12:17:23;-1.70;99.90
13598;DHT22;38563;54.258;12.574;2023-12-04T12:19:50;-1.80;99.90
13598;DHT22;38563;54.258;12.574;2023-12-04T12:22:18;-1.80;99.90
13598;DHT22;38563;54.258;12.574;2023-12-04T12:24:45;-1.90;99.90
13598;DHT22;38563;54.258;12.574;2023-12-04T12:27:12;-1.90;99.90
13598;DHT22;38563;54.258;12.574;2023-12-04T12:29:38;-2.00;99.90
13598;DHT22;38563;54.258;12.574;2023-12-04T12:32:05;-2.00;99.90
13598;DHT22;38563;54.258;12.574;2023-12-04T12:34:32;-2.00;99.90
13598;DHT22;38563;54.258;12.574;2023-12-04T12:37:01;-2.00;99.90
13598;DHT22;38563;54.258;12.574;2023-12-04T12:39:30;-2.00;99.90
13598;DHT22;38563;54.258;12.574;2023-12-04T12:41:57;-1.90;99.90
13598;DHT22;38563;54.258;12.574;2023-12-04T12:44:23;-1.80;99.90
13598;DHT22;38563;54.258;12.574;2023-12-04T12:46:51;-1.90;99.90
13598;DHT22;38563;54.258;12.574;2023-12-04T12:49:18;-1.80;99.90
13598;DHT22;38563;54.258;12.574;2023-12-04T12:51:45;-1.80;99.90
13598;DHT22;38563;54.258;12.574;2023-12-04T12:54:13;-1.80;99.90
13598;DHT22;38563;54.258;12.574;2023-12-04T12:56:41;-1.80;99.90
13598;DHT22;38563;54.258;12.574;2023-12-04T12:59:08;-1.80;99.90
13598;DHT22;38563;54.258;12.574;2023-12-04T13:01:35;-1.80;99.90
13598;DHT22;38563;54.258;12.574;2023-12-04T13:04:03;-1.80;99.90
13598;DHT22;38563;54.258;12.574;2023-12-04T13:06:30;-1.80;99.90
13598;DHT22;38563;54.258;12.574;2023-12-04T13:08:57;-1.80;99.90
13598;DHT22;38563;54.258;12.574;2023-12-04T13:11:23;-1.80;99.90
13598;DHT22;38563;54.258;12.574;2023-12-04T13:13:51;-1.80;99.90
13598;DHT22;38563;54.258;12.574;2023-12-04T13:16:19;-1.90;99.90
13598;DHT22;38563;54.258;12.574;2023-12-04T13:18:46;-1.90;99.90
13598;DHT22;38563;54.258;12.574;2023-12-04T13:21:13;-2.00;99.90
13598;DHT22;38563;54.258;12.574;2023-12-04T13:23:39;-1.90;99.90
13598;DHT22;38563;54.258;12.574;2023-12-04T13:26:07;-1.90;99.90
13598;DHT22;38563;54.258;12.574;2023-12-04T13:28:36;-2.00;99.90
13598;DHT22;38563;54.258;12.574;2023-12-04T13:31:05;-2.00;99.90
13598;DHT22;38563;54.258;12.574;2023-12-04T13:33:33;-1.90;99.90
13598;DHT22;38563;54.258;12.574;2023-12-04T13:36:00;-1.90;99.90
13598;DHT22;38563;54.258;12.574;2023-12-04T13:38:27;-1.90;99.90
13598;DHT22;38563;54.258;12.574;2023-12-04T13:40:54;-1.90;99.90
13598;DHT22;38563;54.258;12.574;2023-12-04T13:43:34;-1.90;99.90
13598;DHT22;38563;54.258;12.574;2023-12-04T13:46:19;-1.90;99.90
13598;DHT22;38563;54.258;12.574;2023-12-04T13:48:46;-1.80;99.90
13598;DHT22;38563;54.258;12.574;2023-12-04T13:51:13;-1.80;99.90
13598;DHT22;38563;54.258;12.574;2023-12-04T13:53:40;-1.80;99.90
13598;DHT22;38563;54.258;12.574;2023-12-04T13:56:10;-1.80;99.90
13598;DHT22;38563;54.258;12.574;2023-12-04T13:58:51;-1.70;99.90
13598;DHT22;38563;54.258;12.574;2023-12-04T14:01:24;-1.80;99.90
13598;DHT22;38563;54.258;12.574;2023-12-04T14:04:05;-1.80;99.90
13598;DHT22;38563;54.258;12.574;2023-12-04T14:06:31;-1.70;99.90
13598;DHT22;38563;54.258;12.574;2023-12-04T14:08:59;-1.70;99.90
13598;DHT22;38563;54.258;12.574;2023-12-04T14:11:31;-1.70;99.90
13598;DHT22;38563;54.258;12.574;2023-12-04T14:14:02;-1.70;99.90
13598;DHT22;38563;54.258;12.574;2023-12-04T14:16:41;-1.70;99.90
13598;DHT22;38563;54.258;12.574;2023-12-04T14:19:11;-1.70;99.90
13598;DHT22;38563;54.258;12.574;2023-12-04T14:21:38;-1.70;99.90
13598;DHT22;38563;54.258;12.574;2023-12-04T14:24:05;-1.80;99.90
13598;DHT22;38563;54.258;12.574;2023-12-04T14:26:32;-1.90;99.90
13598;DHT22;38563;54.258;12.574;2023-12-04T14:28:59;-1.90;99.90
13598;DHT22;38563;54.258;12.574;2023-12-04T14:31:26;-1.80;99.90
13598;DHT22;38563;54.258;12.574;2023-12-04T14:33:54;-1.90;99.90
13598;DHT22;38563;54.258;12.574;2023-12-04T14:36:21;-1.90;99.90
13598;DHT22;38563;54.258;12.574;2023-12-04T14:38:48;-1.90;99.90
13598;DHT22;38563;54.258;12.574;2023-12-04T14:41:15;-1.90;99.90
13598;DHT22;38563;54.258;12.574;2023-12-04T14:43:42;-1.90;99.90
13598;DHT22;38563;54.258;12.574;2023-12-04T14:46:09;-2.00;99.90
13598;DHT22;38563;54.258;12.574;2023-12-04T14:48:37;-2.00;99.90
13598;DHT22;38563;54.258;12.574;2023-12-04T14:51:06;-2.00;99.90
13598;DHT22;38563;54.258;12.574;2023-12-04T14:53:35;-2.00;99.90
13598;DHT22;38563;54.258;12.574;2023-12-04T14:56:10;-2.00;99.90
13598;DHT22;38563;54.258;12.574;2023-12-04T14:58:57;-2.00;99.90
13598;DHT22;38563;54.258;12.574;2023-12-04T15:01:49;-1.90;99.90
13598;DHT22;38563;54.258;12.574;2023-12-04T15:04:33;-2.00;99.90
13598;DHT22;38563;54.258;12.574;2023-12-04T15:07:33;-2.00;99.90
13598;DHT22;38563;54.258;12.574;2023-12-04T15:10:21;-2.00;99.90
13598;DHT22;38563;54.258;12.574;2023-12-04T15:13:15;-2.00;99.90
13598;DHT22;38563;54.258;12.574;2023-12-04T15:16:09;-2.00;99.90
13598;DHT22;38563;54.258;12.574;2023-12-04T15:18:51;-2.00;99.90
13598;DHT22;38563;54.258;12.574;2023-12-04T15:21:46;-2.10;99.90